Time;durP1;ratioP1;P1;durP2;ratioP2;P2;SDS_P1;SDS_P2;PMS_P1;PMS_P2;Temp;Humidity;BMP_temperature;BMP_pressure;BME280_temperature;BME280_humidity;BME280_pressure;Samples;Min_cycle;Max_cycle;Signal;HPM_P1;HPM_P2
2022/04/27 00:01:10;;;;;;;0.70;0.70;;;7.60;99.90;;;;;;5074005;28;20198;-80
2022/04/27 00:03:36;;;;;;;0.70;0.70;;;7.60;99.90;;;;;;5074476;28;20267;-80
2022/04/27 00:06:01;;;;;;;0.70;0.70;;;7.60;99.90;;;;;;5074417;28;20201;-81
2022/04/27 00:08:27;;;;;;;0.80;0.80;;;7.60;99.90;;;;;;5075489;28;20200;-81
2022/04/27 00:10:52;;;;;;;0.80;0.80;;;7.70;99.90;;;;;;5077961;28;20282;-80
2022/04/27 00:13:18;;;;;;;0.70;0.70;;;7.80;99.90;;;;;;5077089;28;20183;-79
2022/04/27 00:15:44;;;;;;;0.70;0.70;;;7.70;99.90;;;;;;5076797;28;20261;-80
2022/04/27 00:18:09;;;;;;;0.60;0.60;;;7.70;99.90;;;;;;5079146;28;20187;-80
2022/04/27 00:20:35;;;;;;;0.73;0.73;;;7.80;99.90;;;;;;5080635;28;20210;-80
2022/04/27 00:23:00;;;;;;;0.70;0.70;;;7.80;99.90;;;;;;5079735;28;20198;-81
2022/04/27 00:25:26;;;;;;;0.73;0.73;;;7.80;99.90;;;;;;5080618;28;20175;-82
2022/04/27 00:27:51;;;;;;;0.70;0.70;;;7.70;99.90;;;;;;5080144;28;20174;-82
2022/04/27 00:30:17;;;;;;;0.87;0.87;;;7.70;99.90;;;;;;5079389;28;20229;-80
2022/04/27 00:32:43;;;;;;;0.80;0.80;;;7.70;99.90;;;;;;5079598;28;20179;-80
2022/04/27 00:35:08;;;;;;;0.70;0.70;;;7.70;99.90;;;;;;5079212;28;20183;-80
2022/04/27 00:37:34;;;;;;;0.80;0.80;;;7.60;99.90;;;;;;5079408;28;20219;-81
2022/04/27 00:40:00;;;;;;;0.77;0.77;;;7.80;99.90;;;;;;5079995;28;20183;-81
2022/04/27 00:42:26;;;;;;;0.80;0.80;;;7.60;99.90;;;;;;5080719;28;20190;-81
2022/04/27 00:44:51;;;;;;;0.80;0.80;;;7.50;99.90;;;;;;5081414;28;20194;-80
2022/04/27 00:47:18;;;;;;;0.70;0.70;;;7.50;99.90;;;;;;5081365;28;20593;-80
2022/04/27 00:49:47;;;;;;;0.83;0.83;;;7.50;99.90;;;;;;5082025;28;20246;-80
2022/04/27 00:52:15;;;;;;;0.70;0.70;;;7.50;99.90;;;;;;5084474;28;20194;-80
2022/04/27 00:54:41;;;;;;;0.60;0.60;;;7.60;99.90;;;;;;5083289;28;20166;-80
2022/04/27 00:57:08;;;;;;;0.70;0.70;;;7.60;99.90;;;;;;5079843;28;20175;-80
2022/04/27 00:59:35;;;;;;;0.70;0.70;;;7.50;99.90;;;;;;5079319;28;20181;-80
2022/04/27 01:02:01;;;;;;;0.80;0.80;;;7.50;99.90;;;;;;5079221;28;20201;-80
2022/04/27 01:04:28;;;;;;;0.80;0.80;;;7.50;99.90;;;;;;5079015;28;20170;-80
2022/04/27 01:06:53;;;;;;;0.80;0.80;;;7.40;99.90;;;;;;5079605;28;20201;-79
2022/04/27 01:09:21;;;;;;;0.77;0.77;;;7.40;99.90;;;;;;5080915;28;20487;-80
2022/04/27 01:11:47;;;;;;;0.67;0.67;;;7.30;99.90;;;;;;5079886;28;20206;-81
2022/04/27 01:14:12;;;;;;;0.70;0.70;;;7.30;99.90;;;;;;5079706;28;20186;-80
2022/04/27 01:16:38;;;;;;;0.70;0.70;;;7.40;99.90;;;;;;5079348;28;20201;-81
2022/04/27 01:19:07;;;;;;;0.80;0.80;;;7.40;99.90;;;;;;5084172;28;20178;-80
2022/04/27 01:21:33;;;;;;;0.70;0.70;;;7.40;99.90;;;;;;5084875;28;20222;-80
2022/04/27 01:24:00;;;;;;;0.77;0.77;;;7.50;99.90;;;;;;5080680;28;20197;-78
2022/04/27 01:26:25;;;;;;;0.80;0.80;;;7.50;99.90;;;;;;5084284;28;20238;-78
2022/04/27 01:28:51;;;;;;;0.70;0.70;;;7.50;99.90;;;;;;5082258;28;20167;-80
2022/04/27 01:31:17;;;;;;;0.70;0.70;;;7.50;99.90;;;;;;5079604;28;20851;-80
2022/04/27 01:33:43;;;;;;;0.70;0.70;;;7.50;99.90;;;;;;5080281;28;20331;-80
2022/04/27 01:36:10;;;;;;;0.90;0.90;;;7.50;99.90;;;;;;5078539;28;20216;-80
2022/04/27 01:38:38;;;;;;;0.80;0.80;;;7.60;99.90;;;;;;5077133;28;20182;-81
2022/04/27 01:41:04;;;;;;;0.70;0.70;;;7.60;99.90;;;;;;5076600;28;20685;-80
2022/04/27 01:43:30;;;;;;;0.70;0.70;;;7.60;99.90;;;;;;5077364;28;20174;-81
2022/04/27 01:45:56;;;;;;;0.70;0.70;;;7.60;99.90;;;;;;5077611;28;20181;-81
2022/04/27 01:48:22;;;;;;;0.70;0.70;;;7.60;99.90;;;;;;5077080;28;20178;-80
2022/04/27 01:50:47;;;;;;;0.80;0.80;;;7.70;99.90;;;;;;5077871;28;20228;-81
2022/04/27 01:55:58;;;;;;;0.80;0.80;;;7.70;99.90;;;;;;5078608;28;20278;-81
2022/04/27 01:58:24;;;;;;;0.80;0.80;;;7.70;99.90;;;;;;5077507;28;20201;-80
2022/04/27 02:00:50;;;;;;;0.73;0.73;;;7.70;99.90;;;;;;5076841;28;20205;-81
2022/04/27 02:03:18;;;;;;;0.73;0.73;;;7.70;99.90;;;;;;5077219;28;20218;-81
2022/04/27 02:05:44;;;;;;;0.80;0.80;;;7.60;99.90;;;;;;5076883;28;20174;-80
2022/04/27 02:08:10;;;;;;;0.70;0.70;;;7.60;99.90;;;;;;5076619;28;20174;-80
2022/04/27 02:10:35;;;;;;;0.70;0.70;;;7.60;99.90;;;;;;5076302;28;20233;-80
2022/04/27 02:13:06;;;;;;;0.70;0.70;;;7.70;99.90;;;;;;5076866;28;20166;-81
2022/04/27 02:15:32;;;;;;;0.80;0.80;;;7.70;99.90;;;;;;5078192;28;20278;-80
2022/04/27 02:17:58;;;;;;;0.80;0.80;;;7.70;99.90;;;;;;5078937;28;20560;-80
2022/04/27 02:20:24;;;;;;;0.70;0.70;;;7.70;99.90;;;;;;5078417;28;20213;-80
2022/04/27 02:22:51;;;;;;;0.80;0.80;;;7.70;99.90;;;;;;5078735;28;20640;-80
2022/04/27 02:25:17;;;;;;;0.80;0.80;;;7.80;99.90;;;;;;5077790;28;20183;-80
2022/04/27 02:27:43;;;;;;;0.80;0.80;;;7.80;99.90;;;;;;5078655;28;20501;-80
2022/04/27 02:30:10;;;;;;;0.70;0.70;;;7.80;99.90;;;;;;5078196;28;20690;-80
2022/04/27 02:32:36;;;;;;;0.80;0.80;;;7.70;99.90;;;;;;5078075;28;20259;-80
2022/04/27 02:35:03;;;;;;;0.80;0.80;;;7.80;99.90;;;;;;5078387;28;20249;-80
2022/04/27 02:37:30;;;;;;;0.70;0.70;;;7.60;99.90;;;;;;5078459;28;20174;-80
2022/04/27 02:39:56;;;;;;;0.80;0.80;;;7.50;99.90;;;;;;5077414;28;20190;-81
2022/04/27 02:42:22;;;;;;;0.70;0.70;;;7.60;99.90;;;;;;5076941;28;20186;-79
2022/04/27 02:44:48;;;;;;;0.80;0.80;;;7.60;99.90;;;;;;5074082;28;20170;-79
2022/04/27 02:47:14;;;;;;;0.70;0.70;;;7.60;99.90;;;;;;5076139;28;20174;-81
2022/04/27 02:52:24;;;;;;;0.80;0.80;;;7.70;99.90;;;;;;5076725;28;20174;-81
2022/04/27 02:54:49;;;;;;;0.70;0.70;;;7.50;99.90;;;;;;5076298;28;20516;-81
2022/04/27 02:57:16;;;;;;;0.80;0.80;;;7.50;99.90;;;;;;5189728;22;20307;-70
2022/04/27 02:59:44;;;;;;;0.80;0.80;;;7.50;99.90;;;;;;5098480;28;20196;-71
2022/04/27 03:02:10;;;;;;;0.80;0.80;;;7.50;99.90;;;;;;5116974;28;20325;-72
2022/04/27 03:04:36;;;;;;;0.70;0.70;;;7.60;99.90;;;;;;5118662;28;20195;-71
2022/04/27 03:07:02;;;;;;;0.80;0.80;;;7.60;99.90;;;;;;5120295;27;20245;-72
2022/04/27 03:09:29;;;;;;;0.70;0.70;;;7.60;99.90;;;;;;5120424;28;20225;-71
2022/04/27 03:11:55;;;;;;;0.80;0.80;;;7.50;99.90;;;;;;5119677;28;20330;-71
2022/04/27 03:14:20;;;;;;;0.80;0.80;;;7.60;99.90;;;;;;5118605;28;20311;-70
2022/04/27 03:16:46;;;;;;;0.80;0.80;;;7.70;99.90;;;;;;5118488;28;20197;-70
2022/04/27 03:19:12;;;;;;;0.80;0.80;;;7.70;99.90;;;;;;5118835;28;20173;-70
2022/04/27 03:21:37;;;;;;;0.67;0.67;;;7.80;99.90;;;;;;5119285;28;20276;-70
2022/04/27 03:24:03;;;;;;;0.80;0.80;;;7.80;99.90;;;;;;5119612;28;20172;-70
2022/04/27 03:26:29;;;;;;;0.90;0.90;;;7.70;99.90;;;;;;5117929;28;20169;-71
2022/04/27 03:28:55;;;;;;;0.80;0.80;;;7.70;99.90;;;;;;5116755;28;20170;-70
2022/04/27 03:31:20;;;;;;;0.80;0.80;;;7.70;99.90;;;;;;5117655;28;20224;-70
2022/04/27 03:33:46;;;;;;;0.70;0.70;;;7.70;99.90;;;;;;5116829;28;20177;-71
2022/04/27 03:36:12;;;;;;;0.90;0.90;;;7.70;99.90;;;;;;5116782;28;20173;-71
2022/04/27 03:38:38;;;;;;;0.70;0.70;;;7.60;99.90;;;;;;5117880;28;20186;-71
2022/04/27 03:41:04;;;;;;;0.70;0.70;;;7.60;99.90;;;;;;5117333;28;20212;-71
2022/04/27 03:43:30;;;;;;;0.80;0.80;;;7.70;99.90;;;;;;5122733;28;20173;-70
2022/04/27 03:45:56;;;;;;;0.70;0.70;;;7.70;99.90;;;;;;5121902;28;20230;-71
2022/04/27 03:48:21;;;;;;;0.80;0.80;;;7.70;99.90;;;;;;5119607;28;20198;-70
2022/04/27 03:50:47;;;;;;;0.80;0.80;;;7.80;99.90;;;;;;5112129;28;20231;-71
2022/04/27 03:53:12;;;;;;;0.70;0.70;;;7.70;99.90;;;;;;5118411;28;20169;-71
2022/04/27 03:55:38;;;;;;;0.70;0.70;;;7.70;99.90;;;;;;5118950;27;20245;-71
2022/04/27 03:58:05;;;;;;;0.70;0.70;;;7.70;99.90;;;;;;5119144;27;20238;-70
2022/04/27 04:00:31;;;;;;;0.60;0.60;;;7.80;99.90;;;;;;5117980;27;20192;-70
2022/04/27 04:03:00;;;;;;;0.80;0.80;;;7.80;99.90;;;;;;5118407;28;20173;-70
2022/04/27 04:05:26;;;;;;;0.80;0.80;;;7.90;99.90;;;;;;5118920;28;20300;-70
2022/04/27 04:07:52;;;;;;;0.70;0.70;;;7.90;99.90;;;;;;5118434;27;20210;-70
2022/04/27 04:10:18;;;;;;;0.70;0.70;;;7.80;99.90;;;;;;5117968;27;20308;-71
2022/04/27 04:12:45;;;;;;;0.80;0.80;;;7.70;99.90;;;;;;5118358;27;20177;-70
2022/04/27 04:15:11;;;;;;;0.80;0.80;;;7.80;99.90;;;;;;5118367;27;20702;-70
2022/04/27 04:17:37;;;;;;;0.70;0.70;;;7.70;99.90;;;;;;5118800;27;20196;-70
2022/04/27 04:20:03;;;;;;;0.80;0.80;;;7.60;99.90;;;;;;5122562;27;20173;-70
2022/04/27 04:22:28;;;;;;;0.70;0.70;;;7.50;99.90;;;;;;5121058;27;20173;-71
2022/04/27 04:30:22;;;;;;;0.70;0.70;;;7.50;99.90;;;;;;5117873;28;20219;-71
2022/04/27 04:32:48;;;;;;;0.80;0.80;;;7.50;99.90;;;;;;5118492;27;20252;-71
2022/04/27 04:35:14;;;;;;;0.90;0.90;;;7.60;99.90;;;;;;5118495;27;20173;-71
2022/04/27 04:37:39;;;;;;;0.70;0.70;;;7.60;99.90;;;;;;5118195;27;20177;-71
2022/04/27 04:40:05;;;;;;;0.70;0.70;;;7.70;99.90;;;;;;5117714;27;20173;-71
2022/04/27 04:42:34;;;;;;;0.80;0.80;;;7.70;99.90;;;;;;5120952;27;20173;-71
2022/04/27 04:44:59;;;;;;;0.80;0.80;;;7.70;99.90;;;;;;5120558;27;20299;-72
2022/04/27 04:47:25;;;;;;;0.80;0.80;;;7.60;99.90;;;;;;5118457;27;20198;-71
2022/04/27 04:49:51;;;;;;;0.80;0.80;;;7.70;99.90;;;;;;5117679;27;20592;-71
2022/04/27 04:52:16;;;;;;;0.80;0.80;;;7.70;99.90;;;;;;5117701;27;20192;-72
2022/04/27 04:54:42;;;;;;;0.80;0.80;;;7.80;99.90;;;;;;5118063;27;20177;-71
2022/04/27 04:57:07;;;;;;;0.70;0.70;;;7.80;99.90;;;;;;5120081;27;20197;-71
2022/04/27 04:59:33;;;;;;;0.90;0.90;;;7.90;99.90;;;;;;5121126;27;20176;-71
2022/04/27 05:01:58;;;;;;;0.80;0.80;;;8.00;99.90;;;;;;5120687;27;20608;-72
2022/04/27 05:04:24;;;;;;;0.70;0.70;;;8.00;99.90;;;;;;5114524;27;20173;-71
2022/04/27 05:06:49;;;;;;;0.70;0.70;;;8.00;99.90;;;;;;5114803;28;20252;-72
2022/04/27 05:09:15;;;;;;;0.70;0.70;;;8.00;99.90;;;;;;5114151;28;20218;-72
2022/04/27 05:11:40;;;;;;;0.80;0.80;;;8.00;99.90;;;;;;5114454;28;20242;-72
2022/04/27 05:14:06;;;;;;;0.70;0.70;;;7.90;99.90;;;;;;5114790;28;20184;-72
2022/04/27 05:16:33;;;;;;;0.73;0.73;;;8.10;99.90;;;;;;5113917;28;20181;-72
2022/04/27 05:19:01;;;;;;;0.80;0.80;;;8.10;99.90;;;;;;5114004;28;20180;-72
2022/04/27 05:21:27;;;;;;;0.80;0.80;;;8.20;99.90;;;;;;5114310;28;20204;-72
2022/04/27 05:23:53;;;;;;;0.80;0.80;;;8.30;99.90;;;;;;5114329;28;20166;-72
2022/04/27 05:26:18;;;;;;;0.60;0.60;;;8.40;99.90;;;;;;5114536;28;20206;-72
2022/04/27 05:34:12;;;;;;;0.67;0.67;;;8.40;99.90;;;;;;5114273;28;20189;-72
2022/04/27 05:36:38;;;;;;;0.70;0.70;;;8.40;99.90;;;;;;5114127;28;20177;-72
2022/04/27 05:39:03;;;;;;;0.90;0.90;;;8.40;99.90;;;;;;5113842;28;20586;-72
2022/04/27 05:41:29;;;;;;;0.70;0.70;;;8.50;99.90;;;;;;5113895;28;20582;-72
2022/04/27 05:43:54;;;;;;;0.70;0.70;;;8.50;99.90;;;;;;5114109;28;20177;-72
2022/04/27 05:46:20;;;;;;;0.70;0.70;;;8.70;99.90;;;;;;5114455;28;20274;-72
2022/04/27 05:48:45;;;;;;;0.80;0.80;;;8.50;99.90;;;;;;5113934;28;20176;-74
2022/04/27 05:51:11;;;;;;;0.80;0.80;;;8.50;99.90;;;;;;5113249;28;20219;-73
2022/04/27 05:53:36;;;;;;;0.70;0.70;;;8.50;99.90;;;;;;5114135;28;20173;-72
2022/04/27 05:56:02;;;;;;;0.70;0.70;;;8.50;99.90;;;;;;5113934;28;20180;-74
2022/04/27 05:58:30;;;;;;;0.60;0.60;;;8.60;99.90;;;;;;5113751;28;20264;-72
2022/04/27 06:00:55;;;;;;;0.60;0.60;;;8.60;99.90;;;;;;5113066;28;20197;-72
2022/04/27 06:03:21;;;;;;;0.70;0.70;;;8.60;99.90;;;;;;5113635;28;20172;-72
2022/04/27 06:05:46;;;;;;;0.70;0.70;;;8.70;99.90;;;;;;5113016;28;20559;-73
2022/04/27 06:08:13;;;;;;;0.70;0.70;;;8.50;99.90;;;;;;5110605;28;20177;-72
2022/04/27 06:10:39;;;;;;;0.70;0.70;;;8.80;99.90;;;;;;5113020;28;20236;-72
2022/04/27 06:13:04;;;;;;;0.70;0.70;;;8.90;99.90;;;;;;5113503;28;20201;-72
2022/04/27 06:15:30;;;;;;;0.70;0.70;;;8.80;99.90;;;;;;5111949;28;20653;-72
2022/04/27 06:17:55;;;;;;;0.60;0.60;;;8.90;99.90;;;;;;5112435;28;20255;-73
2022/04/27 06:20:21;;;;;;;0.50;0.50;;;9.30;99.90;;;;;;5112677;28;20197;-75
2022/04/27 06:22:46;;;;;;;0.60;0.60;;;15.00;99.90;;;;;;5113562;28;20161;-75
2022/04/27 06:25:12;;;;;;;0.50;0.50;;;17.50;99.90;;;;;;5113399;28;20173;-75
2022/04/27 06:27:38;;;;;;;0.53;0.53;;;13.40;1.00;;;;;;5113140;28;20177;-72
2022/04/27 06:30:04;;;;;;;0.50;0.50;;;11.80;1.00;;;;;;5112273;28;20499;-73
2022/04/27 06:32:31;;;;;;;0.50;0.50;;;11.30;1.00;;;;;;5112866;28;20169;-72
2022/04/27 06:35:01;;;;;;;0.50;0.50;;;11.40;1.00;;;;;;5112775;28;20169;-72
2022/04/27 06:37:27;;;;;;;0.47;0.47;;;11.60;1.00;;;;;;5113079;28;20611;-72
2022/04/27 06:39:53;;;;;;;0.50;0.50;;;11.60;1.00;;;;;;5112464;28;20173;-73
2022/04/27 06:42:22;;;;;;;0.40;0.40;;;11.90;1.00;;;;;;5112674;28;20607;-73
2022/04/27 06:44:48;;;;;;;0.50;0.50;;;11.40;28.20;;;;;;5112710;28;20234;-72
2022/04/27 06:47:14;;;;;;;0.50;0.50;;;11.00;1.00;;;;;;5112561;28;20173;-74
2022/04/27 06:49:40;;;;;;;0.50;0.50;;;10.50;38.00;;;;;;5112360;28;20208;-74
2022/04/27 06:52:06;;;;;;;0.50;0.50;;;10.60;99.10;;;;;;5112927;28;20197;-73
2022/04/27 06:54:32;;;;;;;0.50;0.50;;;10.40;99.90;;;;;;5112738;28;20217;-74
2022/04/27 06:56:58;;;;;;;0.50;0.50;;;10.30;99.90;;;;;;5112439;28;20279;-76
2022/04/27 06:59:24;;;;;;;0.40;0.40;;;10.10;99.90;;;;;;5112059;28;20169;-72
2022/04/27 07:01:50;;;;;;;0.47;0.47;;;10.10;99.90;;;;;;5112205;28;20546;-73
2022/04/27 07:04:16;;;;;;;0.50;0.50;;;10.20;99.90;;;;;;5112254;28;20177;-71
2022/04/27 07:06:41;;;;;;;0.60;0.60;;;10.30;99.90;;;;;;5111895;28;20548;-72
2022/04/27 07:09:10;;;;;;;0.60;0.60;;;10.20;99.90;;;;;;5111372;28;20390;-72
2022/04/27 07:11:36;;;;;;;0.40;0.40;;;10.30;99.90;;;;;;5112281;28;20276;-73
2022/04/27 07:14:02;;;;;;;0.40;0.40;;;10.20;93.40;;;;;;5112123;28;20219;-72
2022/04/27 07:16:27;;;;;;;0.50;0.50;;;10.40;53.50;;;;;;5111888;28;20181;-73
2022/04/27 07:18:53;;;;;;;0.60;0.60;;;10.30;99.90;;;;;;5111716;28;20595;-74
2022/04/27 07:21:19;;;;;;;0.50;0.50;;;10.20;99.90;;;;;;5112098;28;20613;-73
2022/04/27 07:23:45;;;;;;;0.67;0.67;;;10.00;99.90;;;;;;5111893;28;20633;-71
2022/04/27 07:26:11;;;;;;;0.60;0.60;;;10.00;99.90;;;;;;5111643;28;20245;-73
2022/04/27 07:28:37;;;;;;;0.50;0.50;;;10.00;99.90;;;;;;5111836;28;20222;-74
2022/04/27 07:31:02;;;;;;;0.60;0.60;;;10.00;99.90;;;;;;5111101;28;20417;-74
2022/04/27 07:33:28;;;;;;;0.50;0.50;;;10.00;99.90;;;;;;5112129;28;20176;-73
2022/04/27 07:35:53;;;;;;;0.60;0.60;;;10.00;99.90;;;;;;5111830;28;20641;-73
2022/04/27 07:38:19;;;;;;;0.60;0.60;;;9.80;99.90;;;;;;5111914;28;20173;-74
2022/04/27 07:40:44;;;;;;;0.60;0.60;;;9.80;99.90;;;;;;5111044;28;20189;-73
2022/04/27 07:43:10;;;;;;;0.70;0.70;;;9.90;99.90;;;;;;5111797;28;20219;-73
2022/04/27 07:45:35;;;;;;;0.70;0.70;;;10.10;99.90;;;;;;5111628;28;20173;-74
2022/04/27 07:48:01;;;;;;;0.60;0.60;;;10.20;24.10;;;;;;5111553;28;20622;-72
2022/04/27 07:50:26;;;;;;;0.70;0.70;;;10.30;38.20;;;;;;5111154;28;20349;-73
2022/04/27 07:52:52;;;;;;;0.60;0.60;;;10.40;23.20;;;;;;5111773;28;20170;-75
2022/04/27 07:55:17;;;;;;;0.60;0.60;;;10.70;96.00;;;;;;5111652;28;20645;-73
2022/04/27 07:57:45;;;;;;;0.67;0.67;;;10.90;1.00;;;;;;5111339;28;20185;-73
2022/04/27 08:00:14;;;;;;;0.50;0.50;;;11.30;1.00;;;;;;5110669;28;20193;-72
2022/04/27 08:02:41;;;;;;;0.70;0.70;;;11.10;1.00;;;;;;5111735;28;20197;-74
2022/04/27 08:05:08;;;;;;;0.60;0.60;;;10.60;1.00;;;;;;5111695;28;20181;-74
2022/04/27 08:07:38;;;;;;;0.57;0.57;;;10.50;1.00;;;;;;5111805;28;20252;-72
2022/04/27 08:10:08;;;;;;;0.60;0.60;;;10.30;1.00;;;;;;5111018;28;20291;-72
2022/04/27 08:12:33;;;;;;;0.60;0.60;;;10.30;83.40;;;;;;5111280;28;20657;-73
2022/04/27 08:14:59;;;;;;;0.60;0.60;;;10.20;99.90;;;;;;5111399;28;20297;-71
2022/04/27 08:17:24;;;;;;;0.70;0.70;;;10.10;94.00;;;;;;5111612;28;20222;-72
2022/04/27 08:21:13;;;;;;;0.60;0.60;;;10.00;99.90;;;;;;5110613;28;20173;-72
2022/04/27 08:22:35;;;;;;;0.60;0.60;;;9.80;99.90;;;;;;5108669;28;20238;-72
2022/04/27 08:25:01;;;;;;;0.60;0.60;;;9.90;99.90;;;;;;5110587;28;20713;-73
2022/04/27 08:27:26;;;;;;;0.60;0.60;;;9.80;99.90;;;;;;5110950;28;20169;-72
2022/04/27 08:29:52;;;;;;;0.70;0.70;;;10.00;99.90;;;;;;5110943;28;20216;-72
2022/04/27 08:32:17;;;;;;;0.70;0.70;;;10.10;57.20;;;;;;5111320;28;20673;-73
2022/04/27 08:34:43;;;;;;;0.60;0.60;;;10.00;99.90;;;;;;5111347;28;20314;-72
2022/04/27 08:37:08;;;;;;;0.70;0.70;;;9.80;99.90;;;;;;5111398;28;20545;-72
2022/04/27 08:39:34;;;;;;;0.70;0.70;;;9.80;97.30;;;;;;5113227;28;20181;-74
2022/04/27 08:41:59;;;;;;;0.60;0.60;;;9.90;99.90;;;;;;5115030;28;20193;-74
2022/04/27 08:44:25;;;;;;;0.70;0.70;;;10.00;91.90;;;;;;5115259;28;20193;-72
2022/04/27 08:46:52;;;;;;;0.70;0.70;;;10.20;33.60;;;;;;5115231;28;20584;-73
2022/04/27 08:49:17;;;;;;;0.70;0.70;;;10.40;1.00;;;;;;5114528;27;20196;-73
2022/04/27 08:51:43;;;;;;;0.73;0.73;;;10.40;1.00;;;;;;5114920;28;20574;-75
2022/04/27 08:54:09;;;;;;;0.80;0.80;;;10.50;1.00;;;;;;5114604;28;20257;-73
2022/04/27 08:56:35;;;;;;;0.70;0.70;;;10.60;1.00;;;;;;5121220;22;20238;-79
2022/04/27 08:59:01;;;;;;;0.70;0.70;;;10.40;1.00;;;;;;5057727;28;20191;-80
2022/04/27 09:01:27;;;;;;;0.63;0.63;;;10.70;1.00;;;;;;5058893;28;20214;-79
2022/04/27 09:03:53;;;;;;;0.60;0.60;;;10.90;1.00;;;;;;5057763;28;20175;-79
2022/04/27 09:06:20;;;;;;;0.50;0.50;;;11.20;1.00;;;;;;5058121;28;20220;-80
2022/04/27 09:08:52;;;;;;;0.60;0.60;;;11.40;1.00;;;;;;5056902;28;20659;-83
2022/04/27 09:11:18;;;;;;;0.60;0.60;;;11.70;1.00;;;;;;5056444;28;20219;-78
2022/04/27 09:13:53;;;;;;;0.57;0.57;;;11.70;99.90;;;;;;5055149;28;20171;-78
2022/04/27 09:16:21;;;;;;;0.50;0.50;;;11.90;99.90;;;;;;5054481;28;20610;-76
2022/04/27 09:21:54;;;;;;;0.53;0.53;;;11.90;1.00;;;;;;5054462;28;20202;-77
2022/04/27 09:24:20;;;;;;;0.50;0.50;;;12.10;99.90;;;;;;5054268;28;20190;-78
2022/04/27 09:27:02;;;;;;;0.50;0.50;;;12.40;99.90;;;;;;5055397;28;20171;-78
2022/04/27 09:29:27;;;;;;;0.40;0.40;;;12.60;99.90;;;;;;5056135;28;20198;-78
2022/04/27 09:31:57;;;;;;;0.43;0.43;;;12.70;1.00;;;;;;5054617;28;20198;-79
2022/04/27 09:34:29;;;;;;;0.50;0.50;;;12.50;99.90;;;;;;5054665;28;20237;-77
2022/04/27 09:37:00;;;;;;;0.50;0.50;;;12.40;99.90;;;;;;5054323;28;20178;-77
2022/04/27 09:39:26;;;;;;;0.50;0.50;;;12.30;99.90;;;;;;5053826;28;20328;-78
2022/04/27 09:41:52;;;;;;;0.40;0.40;;;12.30;1.00;;;;;;5054487;28;20659;-77
2022/04/27 09:44:31;;;;;;;0.50;0.50;;;12.20;99.90;;;;;;5054976;28;20585;-78
2022/04/27 09:47:03;;;;;;;0.50;0.50;;;12.00;1.00;;;;;;5055731;28;20178;-78
2022/04/27 09:49:36;;;;;;;0.50;0.50;;;12.20;1.00;;;;;;5054247;28;20676;-78
2022/04/27 09:52:05;;;;;;;0.40;0.40;;;12.20;62.20;;;;;;5056319;28;20290;-77
2022/04/27 09:54:34;;;;;;;0.50;0.50;;;12.30;1.00;;;;;;5059939;28;20176;-78
2022/04/27 09:57:05;;;;;;;0.40;0.40;;;12.10;1.00;;;;;;5058144;28;20224;-78
2022/04/27 09:59:34;;;;;;;0.50;0.50;;;12.10;99.90;;;;;;5060150;28;20187;-78
2022/04/27 10:02:08;;;;;;;0.40;0.40;;;11.90;60.40;;;;;;5062924;28;20195;-78
2022/04/27 10:04:35;;;;;;;0.50;0.50;;;12.20;99.90;;;;;;5067217;28;20187;-79
2022/04/27 10:07:03;;;;;;;0.40;0.40;;;12.30;1.00;;;;;;5062774;28;20235;-79
2022/04/27 10:09:30;;;;;;;0.43;0.43;;;12.40;1.00;;;;;;5068806;28;20274;-80
2022/04/27 10:11:57;;;;;;;0.43;0.43;;;12.70;99.90;;;;;;5066392;28;20210;-78
2022/04/27 10:14:24;;;;;;;0.43;0.43;;;12.70;1.00;;;;;;5071055;28;20179;-79
2022/04/27 10:16:50;;;;;;;0.50;0.50;;;12.30;1.00;;;;;;5062942;28;20184;-81
2022/04/27 10:19:17;;;;;;;0.60;0.60;;;12.80;1.00;;;;;;5063049;28;20250;-78
2022/04/27 10:21:57;;;;;;;0.50;0.50;;;12.90;99.90;;;;;;5065895;28;20199;-82
2022/04/27 10:24:35;;;;;;;0.50;0.50;;;12.50;1.00;;;;;;5068390;28;20187;-80
2022/04/27 10:27:35;;;;;;;0.50;0.50;;;12.20;99.90;;;;;;5058788;28;20233;-78
2022/04/27 10:30:20;;;;;;;0.50;0.50;;;13.00;1.00;;;;;;5063509;28;20215;-79
2022/04/27 10:32:52;;;;;;;0.50;0.50;;;12.80;1.00;;;;;;5063659;28;20201;-78
2022/04/27 10:35:29;;;;;;;0.50;0.50;;;12.80;78.00;;;;;;5057202;28;20205;-79
2022/04/27 10:38:19;;;;;;;0.40;0.40;;;13.30;99.90;;;;;;5055725;28;20213;-79
2022/04/27 10:40:44;;;;;;;0.40;0.40;;;13.10;99.90;;;;;;5054923;28;20199;-79
2022/04/27 10:43:19;;;;;;;0.40;0.40;;;12.80;99.90;;;;;;5053559;28;20193;-79
2022/04/27 10:45:48;;;;;;;0.40;0.40;;;13.00;1.00;;;;;;5054093;28;20269;-77
2022/04/27 10:48:24;;;;;;;0.50;0.50;;;13.20;64.30;;;;;;5053347;28;20175;-77
2022/04/27 10:51:02;;;;;;;0.40;0.40;;;13.00;1.00;;;;;;5051935;28;20238;-77
2022/04/27 10:53:38;;;;;;;0.50;0.50;;;13.00;6.40;;;;;;5052355;28;20640;-78
2022/04/27 10:56:23;;;;;;;0.30;0.30;;;12.80;99.90;;;;;;5052439;28;20273;-78
2022/04/27 10:58:49;;;;;;;0.50;0.50;;;12.70;1.00;;;;;;5054665;28;20244;-79
2022/04/27 11:01:25;;;;;;;0.50;0.50;;;12.70;99.90;;;;;;5052787;28;20195;-78
2022/04/27 11:04:03;;;;;;;0.60;0.60;;;12.50;1.00;;;;;;5065667;28;20182;-80
2022/04/27 11:06:56;;;;;;;0.50;0.50;;;12.50;99.90;;;;;;5061345;28;20618;-78
2022/04/27 11:09:34;;;;;;;0.53;0.53;;;12.90;1.00;;;;;;5055037;28;20179;-82
2022/04/27 11:12:01;;;;;;;0.50;0.50;;;13.10;1.00;;;;;;5059403;28;20218;-77
2022/04/27 11:14:34;;;;;;;0.50;0.50;;;13.40;1.00;;;;;;5055492;28;20604;-81
2022/04/27 11:17:00;;;;;;;0.43;0.43;;;13.70;1.00;;;;;;5055637;28;20186;-79
2022/04/27 11:19:39;;;;;;;0.40;0.40;;;14.00;1.00;;;;;;5058220;28;20183;-77
2022/04/27 11:22:15;;;;;;;0.50;0.50;;;13.40;1.00;;;;;;5055288;28;20191;-78
2022/04/27 11:24:42;;;;;;;0.40;0.40;;;13.50;1.00;;;;;;5054058;28;20610;-79
2022/04/27 11:27:08;;;;;;;0.40;0.40;;;13.50;1.00;;;;;;5055530;28;20207;-79
2022/04/27 11:29:35;;;;;;;0.43;0.43;;;13.10;1.00;;;;;;5055091;28;20293;-78
2022/04/27 11:32:06;;;;;;;0.50;0.50;;;12.90;99.90;;;;;;5054780;28;20493;-78
2022/04/27 11:34:33;;;;;;;0.50;0.50;;;13.20;1.00;;;;;;5056213;28;20179;-80
2022/04/27 11:37:14;;;;;;;0.43;0.43;;;13.10;1.00;;;;;;5055332;28;20183;-78
2022/04/27 11:39:39;;;;;;;0.40;0.40;;;13.50;1.00;;;;;;5054676;28;20182;-79
2022/04/27 11:42:05;;;;;;;0.43;0.43;;;13.70;1.00;;;;;;5056081;28;20217;-79
2022/04/27 11:44:31;;;;;;;0.40;0.40;;;13.20;99.90;;;;;;5055379;28;20221;-78
2022/04/27 11:46:57;;;;;;;0.50;0.50;;;12.90;99.90;;;;;;5054149;28;20663;-77
2022/04/27 11:49:23;;;;;;;0.50;0.50;;;13.30;1.00;;;;;;5052384;28;20179;-78
2022/04/27 11:51:50;;;;;;;0.47;0.47;;;13.10;1.00;;;;;;5052867;28;20202;-78
2022/04/27 11:54:29;;;;;;;0.50;0.50;;;13.40;1.00;;;;;;5052683;28;20263;-77
2022/04/27 11:57:01;;;;;;;0.50;0.50;;;13.40;1.00;;;;;;5052730;28;20199;-78
2022/04/27 11:59:43;;;;;;;0.40;0.40;;;13.60;1.00;;;;;;5056294;28;20227;-81
2022/04/27 12:02:10;;;;;;;0.40;0.40;;;14.30;99.90;;;;;;5053511;28;20203;-79
2022/04/27 12:04:36;;;;;;;0.50;0.50;;;14.30;92.90;;;;;;5053015;28;20656;-80
2022/04/27 12:07:10;;;;;;;0.40;0.40;;;14.50;8.70;;;;;;5054973;28;20206;-78
2022/04/27 12:09:35;;;;;;;0.43;0.43;;;14.40;1.00;;;;;;5052757;28;20298;-78
2022/04/27 12:12:11;;;;;;;0.40;0.40;;;14.30;1.00;;;;;;5063453;28;20215;-80
2022/04/27 12:14:41;;;;;;;0.40;0.40;;;14.40;1.00;;;;;;5069052;28;20250;-80
2022/04/27 12:17:06;;;;;;;0.50;0.50;;;15.00;1.00;;;;;;5069485;28;20179;-78
2022/04/27 12:19:33;;;;;;;0.57;0.57;;;15.30;1.00;;;;;;5067952;28;20197;-78
2022/04/27 12:22:15;;;;;;;0.40;0.40;;;15.50;1.00;;;;;;5071070;28;20218;-81
2022/04/27 12:24:47;;;;;;;0.40;0.40;;;14.70;1.00;;;;;;5071524;28;20186;-79
2022/04/27 12:27:19;;;;;;;0.50;0.50;;;14.90;1.00;;;;;;5065303;28;20175;-77
2022/04/27 12:29:45;;;;;;;0.40;0.40;;;14.90;1.00;;;;;;5056632;28;20615;-77
2022/04/27 12:32:11;;;;;;;0.50;0.50;;;15.10;1.00;;;;;;5058224;28;20206;-78
2022/04/27 12:37:30;;;;;;;0.43;0.43;;;15.60;1.00;;;;;;5058138;28;20262;-80
2022/04/27 12:39:56;;;;;;;0.50;0.50;;;15.30;1.00;;;;;;5057910;28;20184;-79
2022/04/27 12:42:21;;;;;;;0.50;0.50;;;15.60;1.00;;;;;;5058945;28;20199;-79
2022/04/27 12:44:47;;;;;;;0.40;0.40;;;15.30;1.00;;;;;;5057228;28;20182;-77
2022/04/27 12:47:14;;;;;;;0.60;0.60;;;15.70;1.00;;;;;;5057015;28;20259;-79
2022/04/27 12:49:44;;;;;;;0.40;0.40;;;15.90;1.00;;;;;;5056130;28;20225;-80
2022/04/27 12:52:33;;;;;;;0.40;0.40;;;15.80;1.00;;;;;;5060613;28;20245;-79
2022/04/27 12:55:03;;;;;;;0.50;0.50;;;15.80;1.00;;;;;;5059209;28;20593;-78
2022/04/27 12:57:52;;;;;;;0.47;0.47;;;15.00;1.00;;;;;;5058257;28;20195;-78
2022/04/27 13:00:20;;;;;;;0.50;0.50;;;14.70;1.00;;;;;;5057448;28;20195;-78
2022/04/27 13:02:46;;;;;;;0.40;0.40;;;15.00;1.00;;;;;;5056762;28;20186;-79
2022/04/27 13:05:12;;;;;;;0.43;0.43;;;15.50;1.00;;;;;;5056420;28;20175;-79
2022/04/27 13:07:40;;;;;;;0.40;0.40;;;15.80;1.00;;;;;;5056450;28;20519;-81
2022/04/27 13:12:51;;;;;;;0.40;0.40;;;15.70;1.00;;;;;;5056111;28;20268;-78
2022/04/27 13:15:17;;;;;;;0.40;0.40;;;15.50;1.00;;;;;;5056459;28;20202;-79
2022/04/27 13:17:42;;;;;;;0.40;0.40;;;15.70;1.00;;;;;;5055574;28;20175;-77
2022/04/27 13:20:09;;;;;;;0.40;0.40;;;16.10;1.00;;;;;;5055245;28;20185;-79
2022/04/27 13:22:35;;;;;;;0.50;0.50;;;15.90;1.00;;;;;;5055049;28;20182;-78